createdAt,value
2023-02-21T00:00:38.229Z,0.00
2023-02-21T00:05:24.163Z,0.00
2023-02-21T00:10:29.782Z,0.00
2023-02-21T00:15:18.778Z,0.00
2023-02-21T00:20:25.926Z,0.00
2023-02-21T00:25:31.681Z,0.00
2023-02-21T00:30:19.950Z,0.00
2023-02-21T00:35:26.654Z,0.00
2023-02-21T00:40:33.309Z,0.00
2023-02-21T00:45:20.616Z,0.00
2023-02-21T00:50:27.455Z,0.00
2023-02-21T00:55:33.289Z,0.00
2023-02-21T01:00:25.203Z,0.00
2023-02-21T01:05:27.825Z,0.00
2023-02-21T01:10:33.370Z,0.00
2023-02-21T01:15:22.585Z,0.00
2023-02-21T01:20:29.958Z,0.00
2023-02-21T01:25:19.127Z,0.00
2023-02-21T01:30:24.807Z,0.00
2023-02-21T01:35:29.827Z,0.00
2023-02-21T01:40:20.696Z,0.00
2023-02-21T01:45:24.340Z,0.00
2023-02-21T01:50:30.894Z,0.00
2023-02-21T01:55:19.419Z,0.00
2023-02-21T02:00:29.616Z,0.00
2023-02-21T02:05:32.699Z,0.00
2023-02-21T02:10:20.968Z,0.00
2023-02-21T02:15:28.027Z,0.00
2023-02-21T02:20:33.488Z,0.00
2023-02-21T02:25:22.363Z,0.00
2023-02-21T02:30:29.039Z,0.00
2023-02-21T02:35:34.985Z,0.00
2023-02-21T02:40:23.813Z,0.00
2023-02-21T02:45:28.842Z,0.00
2023-02-21T02:50:35.330Z,0.00
2023-02-21T02:55:23.806Z,0.00
2023-02-21T03:00:33.565Z,0.00
2023-02-21T03:05:18.713Z,0.00
2023-02-21T03:10:24.704Z,0.00
2023-02-21T03:15:31.124Z,0.00
2023-02-21T03:20:20.388Z,0.00
2023-02-21T03:25:26.123Z,0.00
2023-02-21T03:30:32.447Z,0.00
2023-02-21T03:35:20.881Z,0.00
2023-02-21T03:40:27.485Z,0.00
2023-02-21T03:45:32.912Z,0.00
2023-02-21T03:50:21.194Z,0.00
2023-02-21T03:55:28.079Z,0.00
2023-02-21T04:00:40.516Z,0.00
2023-02-21T04:05:22.996Z,0.00
2023-02-21T04:10:29.393Z,0.00
2023-02-21T04:15:35.588Z,0.00
2023-02-21T04:20:24.503Z,0.00
2023-02-21T04:25:30.043Z,0.00
2023-02-21T04:30:19.003Z,0.00
2023-02-21T04:35:26.004Z,0.00
2023-02-21T04:40:31.584Z,0.00
2023-02-21T04:45:20.130Z,0.00
2023-02-21T04:50:26.006Z,0.00
2023-02-21T04:55:32.621Z,0.00
2023-02-21T05:00:24.843Z,0.00
2023-02-21T05:05:27.348Z,0.00
2023-02-21T05:10:44.914Z,0.00
2023-02-21T05:15:21.527Z,0.00
2023-02-21T05:20:28.484Z,0.00
2023-02-21T05:25:33.496Z,0.00
2023-02-21T05:30:22.891Z,0.00
2023-02-21T05:35:29.263Z,0.00
2023-02-21T05:40:35.371Z,0.00
2023-02-21T05:45:24.000Z,0.00
2023-02-21T05:50:30.590Z,0.00
2023-02-21T05:55:19.640Z,0.00
2023-02-21T06:00:29.234Z,0.00
2023-02-21T06:05:32.687Z,0.02
2023-02-21T06:10:20.285Z,0.76
2023-02-21T06:15:26.255Z,2.59
2023-02-21T06:20:32.772Z,4.59
2023-02-21T06:25:21.682Z,7.66
2023-02-21T06:30:28.237Z,9.84
2023-02-21T06:35:33.418Z,12.56
2023-02-21T06:40:23.319Z,16.42
2023-02-21T06:45:28.093Z,20.38
2023-02-21T06:50:34.239Z,23.23
2023-02-21T06:55:25.311Z,26.80
2023-02-21T07:00:32.010Z,32.93
2023-02-21T07:05:35.607Z,40.20
2023-02-21T07:10:24.308Z,43.23
2023-02-21T07:15:30.294Z,50.35
2023-02-21T07:20:21.007Z,57.35
2023-02-21T07:25:25.063Z,69.71
2023-02-21T07:30:30.802Z,74.45
2023-02-21T07:35:19.979Z,69.78
2023-02-21T07:45:32.677Z,59.69
2023-02-21T07:50:20.763Z,90.47
2023-02-21T07:55:27.196Z,112.74
2023-02-21T08:00:40.661Z,115.36
2023-02-21T08:05:21.591Z,118.91
2023-02-21T08:10:28.748Z,167.41
2023-02-21T08:15:33.794Z,190.58
2023-02-21T08:20:22.876Z,164.93
2023-02-21T08:25:29.394Z,165.35
2023-02-21T08:30:36.041Z,199.60
2023-02-21T08:35:24.120Z,251.08
2023-02-21T08:40:30.378Z,231.93
2023-02-21T08:45:18.460Z,173.25
2023-02-21T08:50:24.743Z,210.47
2023-02-21T08:55:31.573Z,174.17
2023-02-21T09:00:21.622Z,180.91
2023-02-21T09:05:25.898Z,185.41
2023-02-21T09:10:32.054Z,187.04
2023-02-21T09:15:20.738Z,183.75
2023-02-21T09:20:27.919Z,197.87
2023-02-21T09:25:32.802Z,209.42
2023-02-21T09:30:22.042Z,211.80
2023-02-21T09:35:27.925Z,197.65
2023-02-21T09:40:37.932Z,191.91
2023-02-21T09:45:22.058Z,197.17
2023-02-21T09:50:28.866Z,183.42
2023-02-21T09:55:34.074Z,248.05
2023-02-21T10:00:26.781Z,251.74
2023-02-21T10:05:30.272Z,194.38
2023-02-21T10:10:18.666Z,160.81
2023-02-21T10:15:24.782Z,231.09
2023-02-21T10:20:31.757Z,222.13
2023-02-21T10:25:19.570Z,220.26
2023-02-21T10:30:26.644Z,222.72
2023-02-21T10:35:32.545Z,202.96
2023-02-21T10:45:26.420Z,177.43
2023-02-21T10:50:33.157Z,188.18
2023-02-21T10:55:32.167Z,142.81
2023-02-21T11:00:34.550Z,140.15
2023-02-21T11:15:29.639Z,154.09
2023-02-21T11:20:37.928Z,197.66
2023-02-21T11:25:24.532Z,196.57
2023-02-21T11:35:19.541Z,168.00
2023-02-21T12:15:33.349Z,126.36
2023-02-21T12:20:24.254Z,132.65
2023-02-21T12:25:27.395Z,137.45
2023-02-21T12:30:34.393Z,146.59
2023-02-21T12:35:22.723Z,199.28
2023-02-21T12:40:29.831Z,199.51
2023-02-21T12:45:34.281Z,165.15
2023-02-21T12:50:23.372Z,130.98
2023-02-21T12:55:29.387Z,163.34
2023-02-21T13:00:19.834Z,169.29
2023-02-21T13:05:25.823Z,127.90
2023-02-21T13:10:37.909Z,125.27
2023-02-21T13:15:19.791Z,108.25
2023-02-21T13:20:26.695Z,86.50
2023-02-21T13:25:32.623Z,116.28
2023-02-21T13:30:21.948Z,119.94
2023-02-21T13:35:27.924Z,91.01
2023-02-21T13:40:38.228Z,113.25
2023-02-21T13:45:22.186Z,126.09
2023-02-21T13:50:28.569Z,193.70
2023-02-21T13:55:33.624Z,177.66
2023-02-21T14:00:26.723Z,122.02
2023-02-21T14:05:28.608Z,92.12
2023-02-21T14:10:35.838Z,82.44
2023-02-21T14:15:23.604Z,74.13
2023-02-21T14:20:29.881Z,68.57
2023-02-21T14:25:18.207Z,79.37
2023-02-21T14:30:24.894Z,84.14
2023-02-21T14:35:31.201Z,80.07
2023-02-21T14:40:21.161Z,63.48
2023-02-21T14:45:25.476Z,63.59
2023-02-21T14:50:31.554Z,60.92
2023-02-21T14:55:23.092Z,60.08
2023-02-21T15:00:29.436Z,53.42
2023-02-21T15:05:34.278Z,54.45
2023-02-21T15:10:21.983Z,51.83
2023-02-21T15:15:27.913Z,48.92
2023-02-21T15:20:36.401Z,44.37
2023-02-21T15:25:22.760Z,41.67
2023-02-21T15:30:29.462Z,40.78
2023-02-21T15:35:35.448Z,38.59
2023-02-21T15:40:26.051Z,36.22
2023-02-21T15:45:30.536Z,39.92
2023-02-21T15:50:19.718Z,37.96
2023-02-21T15:55:25.599Z,33.31
2023-02-21T16:00:33.769Z,26.61
2023-02-21T16:05:20.660Z,21.56
2023-02-21T16:10:27.037Z,18.52
2023-02-21T16:15:33.113Z,13.94
2023-02-21T16:20:22.508Z,10.84
2023-02-21T16:25:27.750Z,7.85
2023-02-21T16:30:34.906Z,4.95
2023-02-21T16:35:22.976Z,2.97
2023-02-21T16:40:29.531Z,1.66
2023-02-21T16:45:34.397Z,0.11
2023-02-21T16:50:23.323Z,0.00
2023-02-21T16:55:30.396Z,0.00
2023-02-21T17:00:22.292Z,0.00
2023-02-21T17:05:25.491Z,0.00
2023-02-21T17:10:31.094Z,0.00
2023-02-21T17:15:20.278Z,0.00
2023-02-21T17:20:27.211Z,0.00
2023-02-21T17:25:32.892Z,0.00
2023-02-21T17:30:21.683Z,0.00
2023-02-21T17:35:27.170Z,0.00
2023-02-21T17:40:33.955Z,0.00
2023-02-21T17:45:22.354Z,0.00
2023-02-21T17:50:28.821Z,0.00
2023-02-21T17:55:34.893Z,0.00
2023-02-21T18:00:28.226Z,0.00
2023-02-21T18:05:41.644Z,0.00
2023-02-21T18:10:22.469Z,0.00
2023-02-21T18:15:25.394Z,0.00
2023-02-21T18:20:31.623Z,0.00
2023-02-21T18:25:19.693Z,0.00
2023-02-21T18:30:27.139Z,0.00
2023-02-21T18:35:32.246Z,0.00
2023-02-21T18:40:21.510Z,0.00
2023-02-21T18:45:27.217Z,0.00
2023-02-21T18:50:33.622Z,0.00
2023-02-21T18:55:22.701Z,0.00
2023-02-21T19:00:29.792Z,0.00
2023-02-21T19:05:34.097Z,0.00
2023-02-21T19:10:24.219Z,0.00
2023-02-21T19:15:29.515Z,0.00
2023-02-21T19:20:38.001Z,0.00
2023-02-21T19:25:23.779Z,0.00
2023-02-21T19:30:30.708Z,0.00
2023-02-21T19:35:18.616Z,0.00
2023-02-21T19:40:25.406Z,0.00
2023-02-21T19:45:30.333Z,0.00
2023-02-21T19:50:19.218Z,0.00
2023-02-21T19:55:25.446Z,0.00
2023-02-21T20:00:34.782Z,0.00
2023-02-21T20:05:20.632Z,0.00
2023-02-21T20:10:30.955Z,0.00
2023-02-21T20:15:33.010Z,0.00
2023-02-21T20:20:22.902Z,0.00
2023-02-21T20:25:28.511Z,0.00
2023-02-21T20:30:34.356Z,0.00
2023-02-21T20:35:23.056Z,0.00
2023-02-21T20:40:28.952Z,0.00
2023-02-21T20:45:34.947Z,0.00
2023-02-21T20:50:23.251Z,0.00
2023-02-21T20:55:29.918Z,0.00
2023-02-21T21:00:22.745Z,0.00
2023-02-21T21:05:24.459Z,0.00
2023-02-21T21:10:30.494Z,0.00
2023-02-21T21:15:18.935Z,0.00
2023-02-21T21:20:26.086Z,0.00
2023-02-21T21:25:31.686Z,0.00
2023-02-21T21:30:20.075Z,0.00
2023-02-21T21:35:27.109Z,0.00
2023-02-21T21:40:32.596Z,0.00
2023-02-21T21:45:24.805Z,0.00
2023-02-21T21:50:28.001Z,0.00
2023-02-21T21:55:34.941Z,0.00
2023-02-21T22:00:26.381Z,0.00
2023-02-21T22:05:29.083Z,0.00
2023-02-21T22:10:35.148Z,0.00
2023-02-21T22:15:23.439Z,0.00
2023-02-21T22:20:31.020Z,0.00
2023-02-21T22:25:18.773Z,0.00
2023-02-21T22:30:24.833Z,0.00
2023-02-21T22:35:31.236Z,0.00
2023-02-21T22:40:20.880Z,0.00
2023-02-21T22:45:26.105Z,0.00
2023-02-21T22:50:31.606Z,0.00
2023-02-21T22:55:20.805Z,0.00
2023-02-21T23:00:28.815Z,0.00
2023-02-21T23:05:34.204Z,0.00
2023-02-21T23:10:23.154Z,0.00
2023-02-21T23:15:28.168Z,0.00
2023-02-21T23:20:36.744Z,0.00
2023-02-21T23:25:22.620Z,0.00
2023-02-21T23:30:29.351Z,0.00
2023-02-21T23:35:35.531Z,0.00
2023-02-21T23:40:24.213Z,0.00
2023-02-21T23:45:29.996Z,0.00
2023-02-21T23:50:18.585Z,0.00
2023-02-21T23:55:25.655Z,0.00
